Date,TemperatureHighF,TemperatureAvgF,TemperatureLowF,DewpointHighF,DewpointAvgF,DewpointLowF,HumidityHigh,HumidityAvg,HumidityLow,PressureMaxIn,PressureMinIn,WindSpeedMaxMPH,WindSpeedAvgMPH,GustSpeedMaxMPH,PrecipitationSumIn
2013-2-1,24.0,13.1,8.0,10.0,4.7,1.0,83,69,51,30.01,29.56,9,5,21,0.05
2013-2-2,21.0,11.5,6.0,6.0,1.9,-1.0,75,65,45,30.10,29.88,11,6,15,0.00
2013-2-3,27.0,13.6,6.0,14.0,4.6,-3.0,92,67,56,29.91,29.66,5,2,9,0.00
2013-2-4,19.0,11.8,8.0,11.0,3.2,-2.0,90,69,53,29.85,29.63,8,4,15,0.00
2013-2-5,34.0,19.3,9.0,18.0,10.7,-2.0,91,70,50,29.85,29.75,6,2,10,0.00
2013-2-6,33.0,18.7,8.0,19.0,10.0,-6.0,100,70,50,30.26,29.78,8,4,13,0.00
2013-2-7,34.0,17.1,4.0,14.0,2.5,-10.0,72,53,39,30.35,30.23,3,3,3,0.00
2013-2-8,24.0,19.3,17.0,22.0,16.9,5.0,97,90,59,30.26,29.69,8,4,8,0.04
2013-2-9,31.0,14.9,4.0,15.0,6.0,-8.0,96,70,41,30.23,29.72,8,7,17,0.04
2013-2-10,49.0,18.8,-3.0,16.0,-1.5,-14.0,73,45,7,30.35,30.19,6,2,91,0.00
2013-2-11,43.0,33.0,27.0,39.0,27.6,4.0,100,84,32,30.19,29.63,17,6,23,0.00
2013-2-12,30.0,26.7,22.0,26.0,21.9,15.0,89,82,74,29.88,29.66,9,6,23,0.00
2013-2-13,46.0,28.6,21.0,27.0,18.8,16.0,84,68,45,29.85,29.66,9,3,10,0.00
2013-2-14,39.0,27.1,18.0,26.0,19.5,13.0,100,73,54,29.91,29.66,8,2,9,0.00
2013-2-15,41.0,32.0,25.0,28.0,24.1,18.0,100,73,55,29.94,29.85,10,4,17,0.00
2013-2-16,37.0,20.5,14.0,22.0,12.2,3.0,100,71,48,29.97,29.75,6,2,11,0.04
2013-2-17,23.0,10.3,3.0,5.0,-2.8,-10.0,70,55,43,29.78,29.59,13,5,23,0.04
2013-2-18,29.0,13.0,1.0,8.0,-2.4,-12.0,59,50,41,30.10,29.82,12,5,22,0.00
2013-2-19,38.0,28.0,17.0,29.0,21.1,5.0,100,77,53,30.07,29.59,14,4,27,0.12
2013-2-20,27.0,16.5,11.0,23.0,8.4,3.0,96,71,50,29.82,29.63,13,6,23,0.12
2013-2-21,29.0,12.9,9.0,12.0,5.6,3.0,82,73,48,30.29,29.78,11,5,23,0.00
2013-2-22,44.0,21.8,10.0,29.0,16.0,4.0,97,79,50,30.32,30.16,10,4,17,0.00
2013-2-23,34.0,29.6,24.0,34.0,29.0,20.0,100,98,84,30.16,29.82,10,5,17,0.00
2013-2-24,45.0,29.8,24.0,38.0,27.5,20.0,100,91,59,29.94,29.72,9,2,17,0.00
2013-2-25,38.0,28.4,20.0,29.0,24.5,19.0,100,86,67,30.23,29.91,6,2,10,0.00
2013-2-26,38.0,28.6,18.0,33.0,23.9,17.0,100,84,64,30.26,29.91,10,4,18,0.00
2013-2-27,42.0,32.6,25.0,39.0,32.4,25.0,100,99,88,29.94,29.50,13,4,20,0.92
2013-2-28,43.0,34.0,28.0,36.0,31.3,26.0,100,91,68,29.59,29.53,5,1,7,0.13